Terminal Aerodrome Forecast
Issued by NWS

Home | Current Version | Previous Version | Graphics & Text | Print | Product List | Glossary On
Versions: 1 2 3 4 5 6 7 8 9 10 11 12 13 14 15 16 17 18
000
FTUS43 KICT 262126 AAA
TAFRSL
TAF AMD
KRSL 262126Z 2621/2718 02015G22KT P6SM BKN012 OVC025
      TEMPO 2621/2623 3SM -FZDZ BR BKN006
     FM270000 34012KT 6SM -FZDZSN OVC012
     FM270600 33014KT P6SM SCT020 BKN030
     FM271200 33012KT P6SM SCT025=

USA.gov is the U.S. government's official web portal to all federal, state and local government web resources and services.